Ames, Oklahoma
Current Conditions -  °F | °C
As of 3:58 PM on Friday 31 Oct 2014 (Local Time) from KEND Reporting Station
Clear Clear  
Wind Chill: 53°   Ceiling: Unl
Heat Index: 53°   Visibility: 10mi
Dew Point: 24°   Wind: 14mph
Humidity: 32%   Direction: 30°NNE
Pressure: 30.4"   Gusts: NA
Location:  36.25°N, 98.19°W
Report Text: KEND 312058Z AUTO 03012KT 10SM CLR 12/M04 A3040 RMK AO2 SLP298 T01181043 57019 $
Loading
Personal Weather Stations






























Interactive Weather Map
Tropical Storm Tracking
New forecast layout! Learn more

10-Day Weather Forecast

Advertisements
Track Severe Weather on mobile